sensor_id;sensor_type;location;lat;lon;timestamp;P1;durP1;ratioP1;P2;durP2;ratioP2
62911;SDS011;49111;51.028;4.218;2022-11-20T06:48:07;42.05;;;18.60;;
62911;SDS011;49111;51.028;4.218;2022-11-20T06:50:36;34.42;;;17.88;;
62911;SDS011;49111;51.028;4.218;2022-11-20T06:53:03;37.72;;;19.45;;
62911;SDS011;49111;51.028;4.218;2022-11-20T06:55:30;41.65;;;20.27;;
62911;SDS011;49111;51.028;4.218;2022-11-20T06:57:57;42.05;;;18.42;;
62911;SDS011;49111;51.028;4.218;2022-11-20T07:00:23;40.60;;;20.25;;
62911;SDS011;49111;51.028;4.218;2022-11-20T07:02:49;36.70;;;20.15;;
62911;SDS011;49111;51.028;4.218;2022-11-20T07:05:15;38.85;;;19.60;;
62911;SDS011;49111;51.028;4.218;2022-11-20T07:07:41;41.63;;;20.33;;
62911;SDS011;49111;51.028;4.218;2022-11-20T07:10:07;45.20;;;22.55;;
62911;SDS011;49111;51.028;4.218;2022-11-20T07:12:33;49.38;;;21.27;;
62911;SDS011;49111;51.028;4.218;2022-11-20T07:14:59;40.80;;;19.83;;
62911;SDS011;49111;51.028;4.218;2022-11-20T07:17:24;45.88;;;21.70;;
62911;SDS011;49111;51.028;4.218;2022-11-20T07:19:50;48.17;;;22.92;;
62911;SDS011;49111;51.028;4.218;2022-11-20T07:22:16;45.10;;;21.33;;
62911;SDS011;49111;51.028;4.218;2022-11-20T07:24:42;41.70;;;22.13;;
62911;SDS011;49111;51.028;4.218;2022-11-20T07:27:08;45.55;;;23.65;;
62911;SDS011;49111;51.028;4.218;2022-11-20T07:29:33;46.33;;;21.45;;
62911;SDS011;49111;51.028;4.218;2022-11-20T07:31:59;47.70;;;22.58;;
62911;SDS011;49111;51.028;4.218;2022-11-20T07:34:25;54.78;;;23.00;;
62911;SDS011;49111;51.028;4.218;2022-11-20T07:36:51;47.25;;;23.27;;
62911;SDS011;49111;51.028;4.218;2022-11-20T07:39:16;52.60;;;23.40;;
62911;SDS011;49111;51.028;4.218;2022-11-20T07:41:42;52.75;;;22.77;;
62911;SDS011;49111;51.028;4.218;2022-11-20T07:44:08;47.33;;;22.92;;
62911;SDS011;49111;51.028;4.218;2022-11-20T07:46:34;52.67;;;23.40;;
62911;SDS011;49111;51.028;4.218;2022-11-20T07:48:59;52.90;;;23.70;;
62911;SDS011;49111;51.028;4.218;2022-11-20T07:51:25;53.00;;;23.50;;
62911;SDS011;49111;51.028;4.218;2022-11-20T07:53:51;47.80;;;23.33;;
62911;SDS011;49111;51.028;4.218;2022-11-20T07:56:18;54.22;;;25.77;;
62911;SDS011;49111;51.028;4.218;2022-11-20T07:58:44;46.17;;;22.67;;
62911;SDS011;49111;51.028;4.218;2022-11-20T08:01:10;46.08;;;22.15;;
62911;SDS011;49111;51.028;4.218;2022-11-20T08:03:36;50.05;;;22.88;;
62911;SDS011;49111;51.028;4.218;2022-11-20T08:06:04;49.78;;;22.52;;
62911;SDS011;49111;51.028;4.218;2022-11-20T08:08:31;53.58;;;23.10;;
62911;SDS011;49111;51.028;4.218;2022-11-20T08:10:57;56.65;;;25.33;;
62911;SDS011;49111;51.028;4.218;2022-11-20T08:13:43;46.70;;;23.63;;
62911;SDS011;49111;51.028;4.218;2022-11-20T08:16:29;48.75;;;23.30;;
62911;SDS011;49111;51.028;4.218;2022-11-20T08:18:54;50.85;;;24.35;;
62911;SDS011;49111;51.028;4.218;2022-11-20T08:21:20;45.35;;;22.20;;
62911;SDS011;49111;51.028;4.218;2022-11-20T08:23:46;52.72;;;24.42;;
62911;SDS011;49111;51.028;4.218;2022-11-20T08:26:12;51.53;;;23.08;;
62911;SDS011;49111;51.028;4.218;2022-11-20T08:28:37;50.55;;;22.60;;
62911;SDS011;49111;51.028;4.218;2022-11-20T08:31:03;45.92;;;21.77;;
62911;SDS011;49111;51.028;4.218;2022-11-20T08:33:29;44.95;;;20.92;;
62911;SDS011;49111;51.028;4.218;2022-11-20T08:36:03;46.60;;;21.88;;
62911;SDS011;49111;51.028;4.218;2022-11-20T08:38:30;46.20;;;21.00;;
62911;SDS011;49111;51.028;4.218;2022-11-20T08:40:57;48.28;;;23.17;;
62911;SDS011;49111;51.028;4.218;2022-11-20T08:43:42;43.88;;;22.15;;
62911;SDS011;49111;51.028;4.218;2022-11-20T08:46:08;51.42;;;23.27;;
62911;SDS011;49111;51.028;4.218;2022-11-20T08:48:33;47.65;;;22.02;;
62911;SDS011;49111;51.028;4.218;2022-11-20T08:50:59;46.80;;;23.55;;
62911;SDS011;49111;51.028;4.218;2022-11-20T08:53:25;47.35;;;20.90;;
62911;SDS011;49111;51.028;4.218;2022-11-20T08:55:52;44.33;;;20.83;;
62911;SDS011;49111;51.028;4.218;2022-11-20T08:58:18;44.47;;;21.92;;
62911;SDS011;49111;51.028;4.218;2022-11-20T09:00:43;44.58;;;21.85;;
62911;SDS011;49111;51.028;4.218;2022-11-20T09:03:12;50.97;;;22.08;;
62911;SDS011;49111;51.028;4.218;2022-11-20T09:05:38;49.17;;;21.02;;
62911;SDS011;49111;51.028;4.218;2022-11-20T09:08:04;51.70;;;21.80;;
62911;SDS011;49111;51.028;4.218;2022-11-20T09:10:33;53.42;;;20.60;;
62911;SDS011;49111;51.028;4.218;2022-11-20T09:13:02;42.17;;;18.65;;
62911;SDS011;49111;51.028;4.218;2022-11-20T09:15:28;44.28;;;20.20;;
62911;SDS011;49111;51.028;4.218;2022-11-20T09:17:54;45.75;;;21.58;;
62911;SDS011;49111;51.028;4.218;2022-11-20T09:20:23;45.45;;;18.58;;
62911;SDS011;49111;51.028;4.218;2022-11-20T09:22:50;39.63;;;18.80;;
62911;SDS011;49111;51.028;4.218;2022-11-20T09:25:15;38.17;;;19.55;;
62911;SDS011;49111;51.028;4.218;2022-11-20T09:27:42;38.88;;;18.10;;
62911;SDS011;49111;51.028;4.218;2022-11-20T09:30:09;42.80;;;17.88;;
62911;SDS011;49111;51.028;4.218;2022-11-20T09:32:35;45.20;;;19.67;;
62911;SDS011;49111;51.028;4.218;2022-11-20T09:35:03;36.42;;;16.55;;
62911;SDS011;49111;51.028;4.218;2022-11-20T09:37:32;39.83;;;17.63;;
62911;SDS011;49111;51.028;4.218;2022-11-20T09:39:58;44.35;;;18.85;;
62911;SDS011;49111;51.028;4.218;2022-11-20T09:42:31;40.85;;;19.77;;
62911;SDS011;49111;51.028;4.218;2022-11-20T09:47:54;35.42;;;17.15;;
62911;SDS011;49111;51.028;4.218;2022-11-20T09:50:35;35.45;;;15.48;;
62911;SDS011;49111;51.028;4.218;2022-11-20T09:55:45;37.80;;;17.35;;
62911;SDS011;49111;51.028;4.218;2022-11-20T10:01:11;38.65;;;14.73;;
62911;SDS011;49111;51.028;4.218;2022-11-20T10:06:11;38.72;;;20.13;;
62911;SDS011;49111;51.028;4.218;2022-11-20T10:08:48;34.55;;;16.10;;
62911;SDS011;49111;51.028;4.218;2022-11-20T10:11:23;32.03;;;15.82;;
62911;SDS011;49111;51.028;4.218;2022-11-20T10:17:33;33.15;;;15.75;;
62911;SDS011;49111;51.028;4.218;2022-11-20T10:25:51;31.35;;;15.40;;
62911;SDS011;49111;51.028;4.218;2022-11-20T10:28:46;30.00;;;14.90;;
62911;SDS011;49111;51.028;4.218;2022-11-20T10:31:17;30.20;;;13.88;;
62911;SDS011;49111;51.028;4.218;2022-11-20T10:33:58;27.63;;;14.25;;
62911;SDS011;49111;51.028;4.218;2022-11-20T10:36:32;27.77;;;15.40;;
62911;SDS011;49111;51.028;4.218;2022-11-20T10:41:43;28.48;;;15.00;;
62911;SDS011;49111;51.028;4.218;2022-11-20T10:44:15;33.42;;;14.75;;
62911;SDS011;49111;51.028;4.218;2022-11-20T10:47:05;32.08;;;14.45;;
62911;SDS011;49111;51.028;4.218;2022-11-20T10:49:44;27.42;;;13.68;;
62911;SDS011;49111;51.028;4.218;2022-11-20T10:52:16;24.08;;;12.13;;
62911;SDS011;49111;51.028;4.218;2022-11-20T11:00:25;20.95;;;11.40;;
62911;SDS011;49111;51.028;4.218;2022-11-20T11:02:51;16.95;;;8.95;;
62911;SDS011;49111;51.028;4.218;2022-11-20T11:08:20;18.50;;;8.00;;
62911;SDS011;49111;51.028;4.218;2022-11-20T11:11:31;16.40;;;7.57;;
62911;SDS011;49111;51.028;4.218;2022-11-20T11:13:50;12.38;;;6.03;;
62911;SDS011;49111;51.028;4.218;2022-11-20T11:16:19;17.40;;;8.40;;
62911;SDS011;49111;51.028;4.218;2022-11-20T11:18:50;15.15;;;7.43;;
62911;SDS011;49111;51.028;4.218;2022-11-20T11:21:21;12.32;;;6.38;;
62911;SDS011;49111;51.028;4.218;2022-11-20T11:23:58;6.80;;;4.10;;
62911;SDS011;49111;51.028;4.218;2022-11-20T11:26:26;9.93;;;4.78;;
62911;SDS011;49111;51.028;4.218;2022-11-20T11:28:59;12.07;;;4.45;;
62911;SDS011;49111;51.028;4.218;2022-11-20T11:31:30;9.23;;;4.20;;
62911;SDS011;49111;51.028;4.218;2022-11-20T11:34:07;11.77;;;4.13;;
62911;SDS011;49111;51.028;4.218;2022-11-20T11:36:36;7.57;;;3.33;;
62911;SDS011;49111;51.028;4.218;2022-11-20T11:39:03;8.20;;;4.07;;
62911;SDS011;49111;51.028;4.218;2022-11-20T11:41:31;6.10;;;3.33;;
62911;SDS011;49111;51.028;4.218;2022-11-20T11:47:11;8.80;;;4.05;;
62911;SDS011;49111;51.028;4.218;2022-11-20T11:49:47;5.28;;;3.08;;
62911;SDS011;49111;51.028;4.218;2022-11-20T11:52:17;5.13;;;3.42;;
62911;SDS011;49111;51.028;4.218;2022-11-20T11:54:55;15.52;;;3.35;;
62911;SDS011;49111;51.028;4.218;2022-11-20T11:57:28;7.00;;;2.50;;
62911;SDS011;49111;51.028;4.218;2022-11-20T12:00:16;5.60;;;2.70;;
62911;SDS011;49111;51.028;4.218;2022-11-20T12:05:20;8.00;;;3.55;;
62911;SDS011;49111;51.028;4.218;2022-11-20T12:13:17;7.90;;;2.55;;
62911;SDS011;49111;51.028;4.218;2022-11-20T12:16:00;9.20;;;3.00;;
62911;SDS011;49111;51.028;4.218;2022-11-20T12:18:27;6.35;;;3.60;;
62911;SDS011;49111;51.028;4.218;2022-11-20T12:20:57;5.85;;;3.10;;
62911;SDS011;49111;51.028;4.218;2022-11-20T12:23:43;5.50;;;3.00;;
62911;SDS011;49111;51.028;4.218;2022-11-20T12:37:44;6.75;;;2.97;;
62911;SDS011;49111;51.028;4.218;2022-11-20T12:43:24;6.78;;;3.05;;
62911;SDS011;49111;51.028;4.218;2022-11-20T13:03:34;12.18;;;3.25;;
62911;SDS011;49111;51.028;4.218;2022-11-20T13:06:16;8.05;;;3.53;;
62911;SDS011;49111;51.028;4.218;2022-11-20T13:08:53;6.43;;;3.72;;
62911;SDS011;49111;51.028;4.218;2022-11-20T13:14:40;6.20;;;3.78;;
62911;SDS011;49111;51.028;4.218;2022-11-20T13:19:39;8.90;;;3.65;;
62911;SDS011;49111;51.028;4.218;2022-11-20T13:22:07;7.60;;;4.07;;
62911;SDS011;49111;51.028;4.218;2022-11-20T13:24:34;9.68;;;4.30;;
62911;SDS011;49111;51.028;4.218;2022-11-20T13:27:01;10.30;;;4.75;;
62911;SDS011;49111;51.028;4.218;2022-11-20T13:29:44;8.25;;;5.20;;
62911;SDS011;49111;51.028;4.218;2022-11-20T13:32:24;9.07;;;4.63;;
62911;SDS011;49111;51.028;4.218;2022-11-20T13:34:58;8.60;;;4.50;;
62911;SDS011;49111;51.028;4.218;2022-11-20T13:37:30;10.32;;;4.35;;
62911;SDS011;49111;51.028;4.218;2022-11-20T13:42:35;12.32;;;6.03;;
62911;SDS011;49111;51.028;4.218;2022-11-20T13:45:09;10.07;;;4.93;;
62911;SDS011;49111;51.028;4.218;2022-11-20T13:47:49;13.73;;;5.80;;
62911;SDS011;49111;51.028;4.218;2022-11-20T13:50:16;9.77;;;5.22;;
62911;SDS011;49111;51.028;4.218;2022-11-20T13:58:15;7.93;;;3.72;;
62911;SDS011;49111;51.028;4.218;2022-11-20T14:00:46;6.18;;;3.88;;
62911;SDS011;49111;51.028;4.218;2022-11-20T14:03:21;6.18;;;3.40;;
62911;SDS011;49111;51.028;4.218;2022-11-20T14:05:54;6.80;;;3.20;;
62911;SDS011;49111;51.028;4.218;2022-11-20T14:08:38;5.03;;;2.80;;
62911;SDS011;49111;51.028;4.218;2022-11-20T14:11:21;5.05;;;2.78;;
62911;SDS011;49111;51.028;4.218;2022-11-20T14:16:26;3.38;;;2.40;;
62911;SDS011;49111;51.028;4.218;2022-11-20T14:18:56;4.43;;;2.92;;
62911;SDS011;49111;51.028;4.218;2022-11-20T14:21:42;5.10;;;2.45;;
62911;SDS011;49111;51.028;4.218;2022-11-20T14:24:11;7.45;;;2.30;;
62911;SDS011;49111;51.028;4.218;2022-11-20T14:26:38;6.70;;;2.83;;
62911;SDS011;49111;51.028;4.218;2022-11-20T14:29:17;3.17;;;2.72;;
62911;SDS011;49111;51.028;4.218;2022-11-20T14:31:46;5.63;;;2.45;;
62911;SDS011;49111;51.028;4.218;2022-11-20T14:34:17;3.33;;;2.40;;
62911;SDS011;49111;51.028;4.218;2022-11-20T14:36:50;4.13;;;2.65;;
62911;SDS011;49111;51.028;4.218;2022-11-20T14:39:41;3.88;;;2.85;;
62911;SDS011;49111;51.028;4.218;2022-11-20T14:42:16;4.07;;;2.83;;
62911;SDS011;49111;51.028;4.218;2022-11-20T14:44:43;3.88;;;2.88;;
62911;SDS011;49111;51.028;4.218;2022-11-20T14:47:14;4.30;;;3.00;;
62911;SDS011;49111;51.028;4.218;2022-11-20T14:49:44;3.72;;;3.33;;
62911;SDS011;49111;51.028;4.218;2022-11-20T14:52:15;4.63;;;3.20;;
62911;SDS011;49111;51.028;4.218;2022-11-20T14:54:43;5.97;;;3.58;;
62911;SDS011;49111;51.028;4.218;2022-11-20T15:00:05;4.05;;;2.90;;
62911;SDS011;49111;51.028;4.218;2022-11-20T15:02:31;5.97;;;3.45;;
62911;SDS011;49111;51.028;4.218;2022-11-20T15:04:58;5.05;;;3.33;;
62911;SDS011;49111;51.028;4.218;2022-11-20T15:07:33;8.85;;;3.75;;
62911;SDS011;49111;51.028;4.218;2022-11-20T15:10:27;5.10;;;3.65;;
62911;SDS011;49111;51.028;4.218;2022-11-20T15:13:00;5.28;;;4.07;;
62911;SDS011;49111;51.028;4.218;2022-11-20T15:15:30;10.10;;;3.92;;
62911;SDS011;49111;51.028;4.218;2022-11-20T15:18:22;4.40;;;3.47;;
62911;SDS011;49111;51.028;4.218;2022-11-20T15:20:52;9.77;;;4.30;;
62911;SDS011;49111;51.028;4.218;2022-11-20T15:23:20;8.27;;;4.35;;
62911;SDS011;49111;51.028;4.218;2022-11-20T15:25:49;6.22;;;3.60;;
62911;SDS011;49111;51.028;4.218;2022-11-20T15:28:31;6.00;;;3.58;;
62911;SDS011;49111;51.028;4.218;2022-11-20T15:30:59;6.03;;;3.10;;
62911;SDS011;49111;51.028;4.218;2022-11-20T15:33:27;9.48;;;4.00;;
62911;SDS011;49111;51.028;4.218;2022-11-20T15:35:53;9.50;;;4.68;;
62911;SDS011;49111;51.028;4.218;2022-11-20T15:38:18;8.80;;;3.42;;
62911;SDS011;49111;51.028;4.218;2022-11-20T15:40:44;8.27;;;4.60;;
62911;SDS011;49111;51.028;4.218;2022-11-20T15:43:10;7.25;;;3.65;;
62911;SDS011;49111;51.028;4.218;2022-11-20T15:45:37;6.72;;;3.55;;
62911;SDS011;49111;51.028;4.218;2022-11-20T15:48:18;7.25;;;3.63;;
62911;SDS011;49111;51.028;4.218;2022-11-20T15:51:15;10.88;;;3.80;;
62911;SDS011;49111;51.028;4.218;2022-11-20T15:53:52;8.70;;;5.45;;
62911;SDS011;49111;51.028;4.218;2022-11-20T16:02:37;10.88;;;4.35;;
62911;SDS011;49111;51.028;4.218;2022-11-20T16:05:03;12.57;;;6.03;;
62911;SDS011;49111;51.028;4.218;2022-11-20T16:07:34;11.95;;;5.07;;
62911;SDS011;49111;51.028;4.218;2022-11-20T16:10:00;17.60;;;12.13;;
62911;SDS011;49111;51.028;4.218;2022-11-20T16:12:34;24.13;;;13.68;;
62911;SDS011;49111;51.028;4.218;2022-11-20T16:15:28;9.20;;;3.50;;
62911;SDS011;49111;51.028;4.218;2022-11-20T16:18:14;24.35;;;12.50;;
62911;SDS011;49111;51.028;4.218;2022-11-20T16:20:45;9.88;;;4.50;;
62911;SDS011;49111;51.028;4.218;2022-11-20T16:23:18;23.27;;;12.60;;
62911;SDS011;49111;51.028;4.218;2022-11-20T16:25:46;7.93;;;3.50;;
62911;SDS011;49111;51.028;4.218;2022-11-20T16:28:16;19.95;;;14.25;;
62911;SDS011;49111;51.028;4.218;2022-11-20T16:30:43;10.00;;;5.05;;
62911;SDS011;49111;51.028;4.218;2022-11-20T16:33:10;10.35;;;3.70;;
62911;SDS011;49111;51.028;4.218;2022-11-20T16:35:37;11.88;;;6.18;;
62911;SDS011;49111;51.028;4.218;2022-11-20T16:38:04;15.82;;;5.38;;
62911;SDS011;49111;51.028;4.218;2022-11-20T16:40:30;14.15;;;11.00;;
62911;SDS011;49111;51.028;4.218;2022-11-20T16:42:55;12.05;;;5.35;;
62911;SDS011;49111;51.028;4.218;2022-11-20T16:45:22;11.07;;;5.78;;
62911;SDS011;49111;51.028;4.218;2022-11-20T16:47:48;8.95;;;3.50;;
62911;SDS011;49111;51.028;4.218;2022-11-20T16:50:15;16.48;;;4.88;;
62911;SDS011;49111;51.028;4.218;2022-11-20T16:52:43;12.52;;;4.40;;
62911;SDS011;49111;51.028;4.218;2022-11-20T16:55:09;14.75;;;4.28;;
62911;SDS011;49111;51.028;4.218;2022-11-20T16:57:35;12.25;;;4.07;;
62911;SDS011;49111;51.028;4.218;2022-11-20T17:00:02;8.05;;;2.97;;
62911;SDS011;49111;51.028;4.218;2022-11-20T17:02:29;8.82;;;2.50;;
62911;SDS011;49111;51.028;4.218;2022-11-20T17:04:55;9.82;;;2.80;;
62911;SDS011;49111;51.028;4.218;2022-11-20T17:07:21;6.50;;;2.33;;
62911;SDS011;49111;51.028;4.218;2022-11-20T17:09:48;9.43;;;2.25;;
62911;SDS011;49111;51.028;4.218;2022-11-20T17:12:14;3.85;;;1.83;;
62911;SDS011;49111;51.028;4.218;2022-11-20T17:14:40;5.53;;;1.95;;
62911;SDS011;49111;51.028;4.218;2022-11-20T17:17:07;3.13;;;1.85;;
62911;SDS011;49111;51.028;4.218;2022-11-20T17:19:32;7.18;;;2.15;;
62911;SDS011;49111;51.028;4.218;2022-11-20T17:21:58;6.78;;;3.20;;
62911;SDS011;49111;51.028;4.218;2022-11-20T17:24:24;10.75;;;2.60;;
62911;SDS011;49111;51.028;4.218;2022-11-20T17:26:50;12.75;;;4.75;;
62911;SDS011;49111;51.028;4.218;2022-11-20T17:29:16;17.30;;;13.52;;
62911;SDS011;49111;51.028;4.218;2022-11-20T17:31:45;11.30;;;5.68;;
62911;SDS011;49111;51.028;4.218;2022-11-20T17:34:13;7.30;;;3.15;;
62911;SDS011;49111;51.028;4.218;2022-11-20T17:36:40;10.13;;;6.38;;
62911;SDS011;49111;51.028;4.218;2022-11-20T17:39:09;7.03;;;5.15;;
62911;SDS011;49111;51.028;4.218;2022-11-20T17:41:36;6.70;;;3.47;;
62911;SDS011;49111;51.028;4.218;2022-11-20T17:44:02;10.27;;;2.53;;
62911;SDS011;49111;51.028;4.218;2022-11-20T17:46:29;9.82;;;2.88;;
62911;SDS011;49111;51.028;4.218;2022-11-20T17:48:58;9.05;;;4.20;;
62911;SDS011;49111;51.028;4.218;2022-11-20T17:51:26;13.43;;;6.25;;
62911;SDS011;49111;51.028;4.218;2022-11-20T17:53:54;8.90;;;2.75;;
62911;SDS011;49111;51.028;4.218;2022-11-20T17:56:22;10.18;;;3.67;;
62911;SDS011;49111;51.028;4.218;2022-11-20T17:59:08;10.40;;;3.53;;
62911;SDS011;49111;51.028;4.218;2022-11-20T18:01:36;9.27;;;2.97;;
62911;SDS011;49111;51.028;4.218;2022-11-20T18:04:02;7.13;;;2.75;;
62911;SDS011;49111;51.028;4.218;2022-11-20T18:06:28;12.07;;;3.28;;
62911;SDS011;49111;51.028;4.218;2022-11-20T18:08:56;12.25;;;2.80;;
62911;SDS011;49111;51.028;4.218;2022-11-20T18:11:24;7.82;;;2.65;;
62911;SDS011;49111;51.028;4.218;2022-11-20T18:13:52;9.20;;;4.45;;
62911;SDS011;49111;51.028;4.218;2022-11-20T18:16:43;6.60;;;2.45;;
62911;SDS011;49111;51.028;4.218;2022-11-20T18:19:12;12.98;;;3.38;;
62911;SDS011;49111;51.028;4.218;2022-11-20T18:21:40;12.70;;;3.45;;
62911;SDS011;49111;51.028;4.218;2022-11-20T18:24:06;13.57;;;2.97;;
62911;SDS011;49111;51.028;4.218;2022-11-20T18:26:34;9.02;;;3.05;;
62911;SDS011;49111;51.028;4.218;2022-11-20T18:29:00;8.93;;;3.85;;
62911;SDS011;49111;51.028;4.218;2022-11-20T18:31:26;12.38;;;4.30;;
62911;SDS011;49111;51.028;4.218;2022-11-20T18:33:52;8.80;;;3.60;;
62911;SDS011;49111;51.028;4.218;2022-11-20T18:36:20;19.92;;;5.70;;
62911;SDS011;49111;51.028;4.218;2022-11-20T18:38:48;12.85;;;5.68;;
62911;SDS011;49111;51.028;4.218;2022-11-20T18:41:16;13.75;;;5.50;;
62911;SDS011;49111;51.028;4.218;2022-11-20T18:44:02;13.30;;;4.78;;
62911;SDS011;49111;51.028;4.218;2022-11-20T18:46:47;16.73;;;5.38;;
62911;SDS011;49111;51.028;4.218;2022-11-20T18:49:13;15.23;;;5.15;;
62911;SDS011;49111;51.028;4.218;2022-11-20T18:51:39;13.13;;;5.47;;
62911;SDS011;49111;51.028;4.218;2022-11-20T18:54:08;17.98;;;5.82;;
62911;SDS011;49111;51.028;4.218;2022-11-20T18:56:35;14.75;;;5.63;;
62911;SDS011;49111;51.028;4.218;2022-11-20T18:59:01;14.82;;;4.57;;
62911;SDS011;49111;51.028;4.218;2022-11-20T19:01:28;13.00;;;5.68;;
62911;SDS011;49111;51.028;4.218;2022-11-20T19:03:54;18.48;;;5.95;;
62911;SDS011;49111;51.028;4.218;2022-11-20T19:06:20;15.40;;;5.22;;
62911;SDS011;49111;51.028;4.218;2022-11-20T19:08:46;11.20;;;4.43;;
62911;SDS011;49111;51.028;4.218;2022-11-20T19:11:12;16.80;;;4.88;;
62911;SDS011;49111;51.028;4.218;2022-11-20T19:13:38;16.30;;;6.05;;
62911;SDS011;49111;51.028;4.218;2022-11-20T19:16:08;11.93;;;4.68;;
62911;SDS011;49111;51.028;4.218;2022-11-20T19:18:46;17.45;;;4.97;;
62911;SDS011;49111;51.028;4.218;2022-11-20T19:21:17;13.30;;;5.30;;
62911;SDS011;49111;51.028;4.218;2022-11-20T19:23:49;15.38;;;4.90;;
62911;SDS011;49111;51.028;4.218;2022-11-20T19:26:17;14.27;;;5.03;;
